Time;durP1;ratioP1;P1;durP2;ratioP2;P2;SDS_P1;SDS_P2;PMS_P1;PMS_P2;Temp;Humidity;BMP_temperature;BMP_pressure;BME280_temperature;BME280_humidity;BME280_pressure;Samples;Min_cycle;Max_cycle;Signal;HPM_P1;HPM_P2
2023/10/02 00:00:19;;;;;;;25.65;22.65;;;;;;;;;;5090155;27;20031;-60
2023/10/02 00:02:45;;;;;;;25.75;22.90;;;;;;;;;;5083006;27;20015;-62
2023/10/02 00:05:11;;;;;;;26.27;23.48;;;;;;;;;;5070810;27;20027;-61
2023/10/02 00:07:42;;;;;;;26.58;22.63;;;;;;;;;;5086491;28;20027;-62
2023/10/02 00:10:08;;;;;;;28.08;22.48;;;;;;;;;;5091160;27;20071;-62
2023/10/02 00:12:34;;;;;;;26.63;23.13;;;;;;;;;;5069401;28;20424;-61
2023/10/02 00:15:11;;;;;;;26.90;23.40;;;;;;;;;;5092882;27;20023;-63
2023/10/02 00:17:37;;;;;;;28.75;23.00;;;;;;;;;;5086266;27;20373;-62
2023/10/02 00:20:14;;;;;;;25.20;22.50;;;;;;;;;;5086527;27;20024;-62
2023/10/02 00:22:42;;;;;;;26.55;23.17;;;;;;;;;;5073312;28;20105;-61
2023/10/02 00:25:09;;;;;;;26.50;22.73;;;;;;;;;;5093030;28;20019;-62
2023/10/02 00:27:34;;;;;;;26.58;22.80;;;;;;;;;;5074873;28;20016;-62
2023/10/02 00:30:01;;;;;;;27.35;24.02;;;;;;;;;;5089523;27;20837;-61
2023/10/02 00:32:33;;;;;;;27.92;23.45;;;;;;;;;;5083093;28;20019;-61
2023/10/02 00:35:00;;;;;;;28.23;22.85;;;;;;;;;;5084156;27;20023;-61
2023/10/02 00:37:51;;;;;;;27.55;23.20;;;;;;;;;;5079720;28;20047;-61
2023/10/02 00:40:22;;;;;;;27.80;23.57;;;;;;;;;;5086949;27;20057;-62
2023/10/02 00:43:33;;;;;;;26.83;23.73;;;;;;;;;;5073370;28;20102;-61
2023/10/02 00:45:39;;;;;;;27.50;23.80;;;;;;;;;;5087476;27;20015;-61
2023/10/02 00:48:25;;;;;;;28.00;23.05;;;;;;;;;;5092886;27;20029;-62
2023/10/02 00:50:59;;;;;;;24.67;22.02;;;;;;;;;;5088349;27;20031;-62
2023/10/02 00:53:37;;;;;;;27.45;23.20;;;;;;;;;;5096758;27;20509;-61
2023/10/02 00:56:19;;;;;;;26.92;22.50;;;;;;;;;;5097950;27;20023;-61
2023/10/02 00:58:48;;;;;;;28.48;23.10;;;;;;;;;;5091150;28;20016;-60
2023/10/02 01:01:17;;;;;;;25.55;22.75;;;;;;;;;;5090772;28;20031;-62
2023/10/02 01:04:08;;;;;;;28.70;22.73;;;;;;;;;;5092219;27;20685;-62
2023/10/02 01:06:34;;;;;;;26.17;20.90;;;;;;;;;;5092201;28;20996;-61
2023/10/02 01:09:00;;;;;;;25.52;22.85;;;;;;;;;;5084101;28;20043;-62
2023/10/02 01:11:25;;;;;;;27.00;20.95;;;;;;;;;;5094851;28;20007;-62
2023/10/02 01:13:54;;;;;;;27.70;22.00;;;;;;;;;;5099794;28;20554;-62
2023/10/02 01:16:20;;;;;;;28.17;22.55;;;;;;;;;;5089631;28;21032;-62
2023/10/02 01:18:48;;;;;;;27.20;22.45;;;;;;;;;;5098089;28;20019;-62
2023/10/02 01:21:18;;;;;;;25.23;22.52;;;;;;;;;;5061364;28;20036;-62
2023/10/02 01:26:32;;;;;;;25.60;21.98;;;;;;;;;;5089601;28;20441;-62
2023/10/02 01:29:01;;;;;;;27.00;22.95;;;;;;;;;;5092390;28;20316;-62
2023/10/02 01:31:35;;;;;;;29.65;22.23;;;;;;;;;;5100434;28;20131;-61
2023/10/02 01:34:02;;;;;;;26.85;21.92;;;;;;;;;;5094641;28;20703;-61
2023/10/02 01:36:32;;;;;;;25.65;21.27;;;;;;;;;;5068800;28;20069;-62
2023/10/02 01:39:15;;;;;;;25.95;22.60;;;;;;;;;;5094358;28;20023;-61
2023/10/02 01:41:41;;;;;;;25.83;21.27;;;;;;;;;;5100936;28;20020;-62
2023/10/02 01:44:12;;;;;;;25.58;22.02;;;;;;;;;;5079251;28;20039;-64
2023/10/02 01:46:49;;;;;;;25.63;21.55;;;;;;;;;;5076399;27;20776;-63
2023/10/02 01:49:24;;;;;;;26.95;21.90;;;;;;;;;;5077407;28;20094;-62
2023/10/02 01:51:55;;;;;;;25.48;21.63;;;;;;;;;;5103589;27;20016;-61
2023/10/02 01:54:22;;;;;;;27.83;21.73;;;;;;;;;;5102036;27;20020;-62
2023/10/02 01:56:47;;;;;;;24.88;21.35;;;;;;;;;;5098775;27;20047;-64
2023/10/02 01:59:19;;;;;;;28.48;22.23;;;;;;;;;;5074954;28;20123;-63
2023/10/02 02:01:56;;;;;;;24.33;20.13;;;;;;;;;;5095113;27;20020;-63
2023/10/02 02:04:23;;;;;;;25.75;20.67;;;;;;;;;;5096035;27;20062;-64
2023/10/02 02:06:52;;;;;;;24.25;21.08;;;;;;;;;;5093523;27;20454;-63
2023/10/02 02:09:23;;;;;;;26.80;21.53;;;;;;;;;;5098740;27;20056;-62
2023/10/02 02:12:05;;;;;;;26.02;20.80;;;;;;;;;;5097914;27;20254;-63
2023/10/02 02:14:31;;;;;;;26.65;21.35;;;;;;;;;;5094351;27;20201;-63
2023/10/02 02:17:01;;;;;;;25.40;21.55;;;;;;;;;;5074741;27;20023;-62
2023/10/02 02:19:28;;;;;;;24.10;21.17;;;;;;;;;;5086734;27;20097;-63
2023/10/02 02:21:56;;;;;;;27.45;22.05;;;;;;;;;;5085939;27;20098;-62
2023/10/02 02:24:24;;;;;;;26.38;21.77;;;;;;;;;;5091903;28;20516;-60
2023/10/02 02:26:57;;;;;;;26.35;20.98;;;;;;;;;;5079289;28;20138;-62
2023/10/02 02:29:26;;;;;;;25.92;21.63;;;;;;;;;;5110097;27;20030;-63
2023/10/02 02:31:53;;;;;;;26.42;21.45;;;;;;;;;;5095374;27;20028;-62
2023/10/02 02:34:23;;;;;;;26.40;21.20;;;;;;;;;;5081648;27;20015;-61
2023/10/02 02:36:49;;;;;;;24.05;20.13;;;;;;;;;;5099524;27;20039;-63
2023/10/02 02:39:17;;;;;;;25.27;20.40;;;;;;;;;;5075782;27;20052;-62
2023/10/02 02:41:43;;;;;;;26.10;20.73;;;;;;;;;;5091605;27;20062;-64
2023/10/02 02:44:29;;;;;;;26.35;20.30;;;;;;;;;;5090530;27;20098;-64
2023/10/02 02:46:56;;;;;;;25.73;21.38;;;;;;;;;;5092499;27;20640;-60
2023/10/02 02:49:25;;;;;;;26.35;20.55;;;;;;;;;;5075636;27;20395;-63
2023/10/02 02:51:55;;;;;;;25.52;20.50;;;;;;;;;;5048762;28;20028;-62
2023/10/02 02:54:24;;;;;;;24.38;20.98;;;;;;;;;;5073231;28;20024;-62
2023/10/02 02:56:55;;;;;;;26.02;20.73;;;;;;;;;;5057346;28;20639;-62
2023/10/02 02:59:22;;;;;;;26.48;20.98;;;;;;;;;;5051217;28;20041;-63
2023/10/02 03:01:49;;;;;;;26.67;21.35;;;;;;;;;;5070558;28;20013;-63
2023/10/02 03:04:16;;;;;;;27.10;20.10;;;;;;;;;;5060446;28;20120;-64
2023/10/02 03:06:42;;;;;;;26.27;21.50;;;;;;;;;;5077325;28;20108;-63
2023/10/02 03:09:08;;;;;;;26.02;19.45;;;;;;;;;;5077268;28;20031;-63
2023/10/02 03:11:34;;;;;;;26.63;22.23;;;;;;;;;;5081844;28;20077;-62
2023/10/02 03:14:16;;;;;;;24.85;21.08;;;;;;;;;;5049800;28;20433;-63
2023/10/02 03:16:45;;;;;;;28.35;20.70;;;;;;;;;;5070549;28;20027;-64
2023/10/02 03:19:13;;;;;;;24.98;20.92;;;;;;;;;;5075392;28;20028;-62
2023/10/02 03:21:40;;;;;;;27.20;20.75;;;;;;;;;;5055141;28;20012;-67
2023/10/02 03:24:07;;;;;;;28.70;20.30;;;;;;;;;;5060851;28;20038;-62
2023/10/02 03:29:01;;;;;;;25.00;20.10;;;;;;;;;;5069157;28;20032;-66
2023/10/02 03:31:34;;;;;;;28.83;20.35;;;;;;;;;;5065257;28;20534;-63
2023/10/02 03:34:27;;;;;;;27.67;19.95;;;;;;;;;;5074792;28;20491;-61
2023/10/02 03:36:55;;;;;;;26.00;20.55;;;;;;;;;;5068158;28;20024;-61
2023/10/02 03:39:23;;;;;;;25.52;19.63;;;;;;;;;;5055025;28;20068;-63
2023/10/02 03:41:55;;;;;;;24.52;19.48;;;;;;;;;;5064354;28;20012;-62
2023/10/02 03:44:22;;;;;;;24.17;20.23;;;;;;;;;;5051489;28;20527;-62
2023/10/02 03:46:48;;;;;;;23.83;19.88;;;;;;;;;;5074021;28;20016;-61
2023/10/02 03:49:15;;;;;;;25.23;19.38;;;;;;;;;;5078520;28;20044;-60
2023/10/02 03:51:40;;;;;;;24.83;19.00;;;;;;;;;;5074531;28;21176;-62
2023/10/02 03:54:17;;;;;;;24.52;19.45;;;;;;;;;;5068533;28;20510;-63
2023/10/02 03:56:49;;;;;;;24.02;18.92;;;;;;;;;;5072019;28;20062;-63
2023/10/02 03:59:20;;;;;;;26.27;20.13;;;;;;;;;;5072644;28;20262;-63
2023/10/02 04:01:47;;;;;;;26.35;19.77;;;;;;;;;;5066844;28;20009;-64
2023/10/02 04:06:43;;;;;;;25.65;19.15;;;;;;;;;;5065376;28;20545;-63
2023/10/02 04:09:23;;;;;;;26.07;20.03;;;;;;;;;;5051000;28;20020;-63
2023/10/02 04:11:54;;;;;;;29.13;21.42;;;;;;;;;;5070692;28;20021;-63
2023/10/02 04:14:31;;;;;;;23.27;19.33;;;;;;;;;;5060425;28;20027;-63
2023/10/02 04:17:41;;;;;;;25.92;19.92;;;;;;;;;;5057413;28;20027;-63
2023/10/02 04:19:49;;;;;;;28.67;20.00;;;;;;;;;;5059558;28;20519;-62
2023/10/02 04:22:25;;;;;;;25.58;19.38;;;;;;;;;;5070485;28;20513;-64
2023/10/02 04:25:06;;;;;;;26.48;19.50;;;;;;;;;;5082247;27;20029;-62
2023/10/02 04:28:08;;;;;;;26.38;19.10;;;;;;;;;;5054850;28;20024;-67
2023/10/02 04:30:26;;;;;;;24.63;19.75;;;;;;;;;;5071537;28;20032;-64
2023/10/02 04:32:59;;;;;;;25.25;19.55;;;;;;;;;;5071354;28;20066;-63
2023/10/02 04:38:14;;;;;;;27.65;19.30;;;;;;;;;;5072954;28;20067;-62
2023/10/02 04:40:52;;;;;;;26.50;19.20;;;;;;;;;;5064275;28;20028;-63
2023/10/02 04:43:23;;;;;;;23.67;18.65;;;;;;;;;;5066681;28;20031;-64
2023/10/02 04:45:52;;;;;;;27.38;19.90;;;;;;;;;;5069081;28;20016;-63
2023/10/02 04:48:17;;;;;;;25.85;19.70;;;;;;;;;;5069736;28;20362;-64
2023/10/02 04:50:46;;;;;;;25.48;19.17;;;;;;;;;;5056948;28;20518;-62
2023/10/02 04:55:43;;;;;;;25.88;18.77;;;;;;;;;;5078644;28;20413;-62
2023/10/02 04:58:18;;;;;;;25.20;19.02;;;;;;;;;;5075774;28;20024;-64
2023/10/02 05:03:28;;;;;;;22.23;17.55;;;;;;;;;;5060872;28;20477;-62
2023/10/02 05:05:54;;;;;;;27.13;19.58;;;;;;;;;;5045657;28;20027;-62
2023/10/02 05:08:21;;;;;;;26.35;19.70;;;;;;;;;;5042920;28;20024;-62
2023/10/02 05:10:56;;;;;;;23.67;19.05;;;;;;;;;;5047908;28;20020;-62
2023/10/02 05:16:12;;;;;;;26.48;19.08;;;;;;;;;;5057903;28;20031;-61
2023/10/02 05:18:38;;;;;;;27.13;19.42;;;;;;;;;;5062577;28;20021;-62
2023/10/02 05:21:07;;;;;;;26.63;19.08;;;;;;;;;;5067153;28;20063;-61
2023/10/02 05:23:32;;;;;;;26.45;19.08;;;;;;;;;;5072844;28;20024;-62
2023/10/02 05:26:04;;;;;;;25.27;19.07;;;;;;;;;;5058444;28;20026;-62
2023/10/02 05:28:42;;;;;;;25.73;19.17;;;;;;;;;;5077918;28;20265;-62
2023/10/02 05:31:08;;;;;;;27.63;18.92;;;;;;;;;;5064113;28;20066;-63
2023/10/02 05:33:37;;;;;;;25.35;19.85;;;;;;;;;;5072562;28;20119;-62
2023/10/02 05:36:16;;;;;;;28.95;20.13;;;;;;;;;;5069788;28;20025;-62
2023/10/02 05:39:04;;;;;;;26.70;19.10;;;;;;;;;;5067907;28;20099;-60
2023/10/02 05:41:38;;;;;;;29.13;19.75;;;;;;;;;;5071245;28;20035;-63
2023/10/02 05:44:13;;;;;;;25.13;18.95;;;;;;;;;;5072074;28;20515;-62
2023/10/02 05:46:55;;;;;;;29.05;19.02;;;;;;;;;;5066386;28;20687;-61
2023/10/02 05:49:23;;;;;;;28.15;20.02;;;;;;;;;;5073884;28;20864;-62
2023/10/02 05:51:48;;;;;;;28.67;18.98;;;;;;;;;;5069107;28;20046;-62
2023/10/02 05:54:14;;;;;;;26.60;19.15;;;;;;;;;;5057861;28;20028;-63
2023/10/02 05:56:40;;;;;;;27.60;19.50;;;;;;;;;;5053843;28;20074;-63
2023/10/02 05:59:06;;;;;;;24.27;18.85;;;;;;;;;;5069842;28;20250;-63
2023/10/02 06:01:34;;;;;;;26.77;18.97;;;;;;;;;;5057062;28;20039;-62
2023/10/02 06:04:04;;;;;;;28.55;19.40;;;;;;;;;;5077023;28;21083;-62
2023/10/02 06:06:35;;;;;;;25.13;18.40;;;;;;;;;;5073071;28;20021;-62
2023/10/02 06:09:03;;;;;;;23.98;18.55;;;;;;;;;;5068789;28;20028;-62
2023/10/02 06:11:33;;;;;;;26.15;19.17;;;;;;;;;;5069375;28;20059;-62
2023/10/02 06:14:09;;;;;;;26.63;18.85;;;;;;;;;;5070586;28;20369;-61
2023/10/02 06:16:35;;;;;;;24.70;18.17;;;;;;;;;;5053347;28;20596;-62
2023/10/02 06:19:00;;;;;;;25.80;18.02;;;;;;;;;;5069238;28;20100;-62
2023/10/02 06:21:29;;;;;;;27.90;17.60;;;;;;;;;;5055056;28;20433;-62
2023/10/02 06:23:56;;;;;;;26.15;18.33;;;;;;;;;;5071585;28;20063;-63
2023/10/02 06:26:25;;;;;;;24.70;18.13;;;;;;;;;;5053537;28;20416;-63
2023/10/02 06:29:13;;;;;;;26.48;18.23;;;;;;;;;;5067708;28;20024;-63
2023/10/02 06:31:41;;;;;;;28.35;18.20;;;;;;;;;;5075455;28;20032;-62
2023/10/02 06:34:09;;;;;;;27.50;18.63;;;;;;;;;;5070293;28;20019;-63
2023/10/02 06:36:45;;;;;;;24.13;17.08;;;;;;;;;;5069639;28;20813;-63
2023/10/02 06:39:17;;;;;;;30.45;17.80;;;;;;;;;;5051841;28;20016;-62
2023/10/02 06:41:45;;;;;;;27.17;18.35;;;;;;;;;;5052055;28;20016;-63
2023/10/02 06:44:16;;;;;;;27.08;17.92;;;;;;;;;;5078438;28;20037;-61
2023/10/02 06:46:53;;;;;;;24.70;17.77;;;;;;;;;;5078203;28;20026;-60
2023/10/02 06:49:20;;;;;;;27.17;18.25;;;;;;;;;;5083695;28;20132;-62
2023/10/02 06:51:49;;;;;;;30.00;18.40;;;;;;;;;;5092031;27;20016;-62
2023/10/02 06:54:21;;;;;;;26.58;17.60;;;;;;;;;;5096895;27;20019;-62
2023/10/02 06:56:49;;;;;;;25.98;17.15;;;;;;;;;;5095713;27;20390;-63
2023/10/02 06:59:16;;;;;;;26.70;17.35;;;;;;;;;;5079417;27;20019;-62
2023/10/02 07:04:30;;;;;;;26.27;17.65;;;;;;;;;;5091410;27;20100;-62
2023/10/02 07:07:02;;;;;;;;;;;;;;;;;;5097803;27;20027;-62
2023/10/02 07:09:33;;;;;;;25.48;16.58;;;;;;;;;;5086996;27;19958;-63
2023/10/02 07:12:08;;;;;;;24.42;17.15;;;;;;;;;;5097433;27;20027;-62
2023/10/02 07:14:35;;;;;;;26.00;18.30;;;;;;;;;;5076734;28;20217;-63
2023/10/02 07:17:11;;;;;;;24.30;17.20;;;;;;;;;;5077080;28;20486;-63
2023/10/02 07:19:43;;;;;;;26.70;17.50;;;;;;;;;;5084186;27;20031;-63
2023/10/02 07:22:16;;;;;;;26.98;16.85;;;;;;;;;;5090549;27;20020;-63
2023/10/02 07:24:46;;;;;;;28.52;16.95;;;;;;;;;;5093287;27;20024;-62
2023/10/02 07:27:22;;;;;;;;;;;;;;;;;;5076683;28;20088;-63
2023/10/02 07:29:54;;;;;;;25.70;17.35;;;;;;;;;;5089877;27;19927;-62
2023/10/02 07:32:22;;;;;;;26.45;16.58;;;;;;;;;;5088289;27;20019;-62
2023/10/02 07:34:50;;;;;;;27.25;18.00;;;;;;;;;;5074683;28;20076;-62
2023/10/02 07:37:21;;;;;;;28.73;16.85;;;;;;;;;;5090818;27;20122;-63
2023/10/02 07:39:48;;;;;;;28.80;17.50;;;;;;;;;;5077521;28;20028;-65
2023/10/02 07:42:16;;;;;;;28.95;17.75;;;;;;;;;;5071498;27;20011;-62
2023/10/02 07:44:41;;;;;;;24.40;16.63;;;;;;;;;;5078134;27;20007;-63
2023/10/02 07:47:10;;;;;;;24.80;16.05;;;;;;;;;;5078956;28;20023;-62
2023/10/02 07:49:44;;;;;;;26.52;17.10;;;;;;;;;;5082755;27;20188;-62
2023/10/02 07:52:09;;;;;;;25.15;16.70;;;;;;;;;;5074443;28;20016;-62
2023/10/02 07:54:48;;;;;;;26.25;16.25;;;;;;;;;;5078175;28;20024;-62
2023/10/02 07:57:13;;;;;;;25.45;16.20;;;;;;;;;;5068910;28;20069;-62
2023/10/02 07:59:43;;;;;;;28.70;16.52;;;;;;;;;;5064011;28;20745;-62
2023/10/02 08:02:22;;;;;;;25.88;17.80;;;;;;;;;;5072885;28;20119;-63
2023/10/02 08:04:48;;;;;;;28.55;17.23;;;;;;;;;;5074072;28;20154;-63
2023/10/02 08:07:14;;;;;;;28.27;19.30;;;;;;;;;;5069848;28;20526;-63
2023/10/02 08:09:47;;;;;;;28.60;19.17;;;;;;;;;;5058891;28;20052;-63
2023/10/02 08:12:29;;;;;;;26.20;18.25;;;;;;;;;;5083959;28;20054;-63
2023/10/02 08:14:54;;;;;;;27.70;17.90;;;;;;;;;;5069437;28;20015;-62
2023/10/02 08:17:27;;;;;;;32.83;21.85;;;;;;;;;;5075655;28;20145;-62
2023/10/02 08:19:59;;;;;;;35.05;20.77;;;;;;;;;;5071267;28;20031;-62
2023/10/02 08:22:44;;;;;;;30.25;19.75;;;;;;;;;;5068831;28;20091;-63
2023/10/02 08:25:13;;;;;;;28.10;18.63;;;;;;;;;;5070183;28;20043;-63
2023/10/02 08:27:41;;;;;;;27.00;18.35;;;;;;;;;;5072293;28;20042;-63
2023/10/02 08:30:18;;;;;;;25.83;17.27;;;;;;;;;;5068638;28;20028;-63
2023/10/02 08:32:44;;;;;;;32.65;22.40;;;;;;;;;;5076263;28;20024;-63
2023/10/02 08:35:13;;;;;;;27.52;17.73;;;;;;;;;;5054838;28;20497;-59
2023/10/02 08:37:39;;;;;;;31.15;20.73;;;;;;;;;;5069874;28;20009;-63
2023/10/02 08:40:07;;;;;;;36.58;22.17;;;;;;;;;;5073158;28;20085;-62
2023/10/02 08:42:32;;;;;;;26.92;18.15;;;;;;;;;;5072211;28;20803;-63
2023/10/02 08:45:00;;;;;;;31.47;17.77;;;;;;;;;;5054697;28;20036;-63
2023/10/02 08:47:26;;;;;;;24.98;16.88;;;;;;;;;;5072399;28;20338;-63
2023/10/02 08:50:03;;;;;;;28.25;19.00;;;;;;;;;;5082505;28;20054;-62
2023/10/02 08:52:38;;;;;;;26.27;18.13;;;;;;;;;;5069977;28;20039;-63
2023/10/02 08:55:54;;;;;;;32.70;20.98;;;;;;;;;;5054572;28;20024;-62
2023/10/02 08:58:22;;;;;;;28.85;18.95;;;;;;;;;;5072970;28;20023;-62
2023/10/02 09:01:01;;;;;;;26.17;17.92;;;;;;;;;;5053136;28;20032;-63
2023/10/02 09:03:26;;;;;;;27.58;17.48;;;;;;;;;;5073355;28;20027;-62
2023/10/02 09:06:22;;;;;;;27.42;17.75;;;;;;;;;;5068286;28;20028;-63
2023/10/02 09:09:12;;;;;;;28.42;18.10;;;;;;;;;;5071832;28;20097;-62
2023/10/02 09:11:29;;;;;;;27.63;17.63;;;;;;;;;;5076140;28;20042;-63
2023/10/02 09:17:12;;;;;;;23.98;15.43;;;;;;;;;;5017247;28;20136;-63
2023/10/02 09:19:46;;;;;;;22.17;15.20;;;;;;;;;;5058924;28;20032;-62
2023/10/02 09:22:14;;;;;;;24.90;15.50;;;;;;;;;;5070625;28;20144;-61
2023/10/02 09:24:40;;;;;;;25.70;15.63;;;;;;;;;;5069548;28;20016;-63
2023/10/02 09:27:24;;;;;;;24.60;15.75;;;;;;;;;;5070661;28;20066;-63
2023/10/02 09:30:15;;;;;;;27.23;15.85;;;;;;;;;;5074477;28;20071;-62
2023/10/02 09:32:47;;;;;;;24.27;15.18;;;;;;;;;;5072709;28;20071;-63
2023/10/02 09:35:21;;;;;;;27.52;15.88;;;;;;;;;;5071058;28;20016;-63
2023/10/02 09:37:56;;;;;;;26.20;16.27;;;;;;;;;;5057558;28;20027;-62
2023/10/02 09:43:22;;;;;;;26.33;15.50;;;;;;;;;;5069202;28;20959;-63
2023/10/02 09:45:52;;;;;;;27.00;15.48;;;;;;;;;;5078828;28;20066;-63
2023/10/02 09:51:26;;;;;;;23.77;15.05;;;;;;;;;;5068806;28;20062;-63
2023/10/02 09:54:17;;;;;;;24.88;15.82;;;;;;;;;;5057354;28;20054;-62
2023/10/02 09:57:11;;;;;;;24.98;15.30;;;;;;;;;;5076889;28;20016;-63
2023/10/02 09:59:46;;;;;;;22.58;15.20;;;;;;;;;;5057495;28;20146;-63
2023/10/02 10:10:49;;;;;;;23.33;14.93;;;;;;;;;;5064714;28;20559;-63
2023/10/02 10:13:24;;;;;;;21.90;14.15;;;;;;;;;;5063116;28;20530;-62
2023/10/02 10:15:52;;;;;;;23.38;15.18;;;;;;;;;;5075311;28;20020;-62
2023/10/02 10:18:19;;;;;;;23.80;15.50;;;;;;;;;;5075720;28;20028;-63
2023/10/02 10:20:44;;;;;;;24.70;16.10;;;;;;;;;;5077431;28;20031;-63
2023/10/02 10:23:31;;;;;;;22.57;15.23;;;;;;;;;;5072205;28;20027;-61
2023/10/02 10:26:07;;;;;;;23.95;15.02;;;;;;;;;;5065302;28;20024;-63
2023/10/02 10:28:50;;;;;;;23.23;15.63;;;;;;;;;;5067253;28;20073;-63
2023/10/02 10:31:29;;;;;;;23.92;15.43;;;;;;;;;;5054247;28;20837;-63
2023/10/02 10:33:56;;;;;;;24.02;15.82;;;;;;;;;;5069596;28;20012;-63
2023/10/02 10:36:37;;;;;;;23.15;15.57;;;;;;;;;;5076176;28;20015;-63
2023/10/02 10:39:31;;;;;;;20.75;14.35;;;;;;;;;;5054416;28;20562;-63
2023/10/02 10:41:57;;;;;;;21.85;15.10;;;;;;;;;;5075035;28;20039;-63
2023/10/02 10:44:32;;;;;;;24.30;15.32;;;;;;;;;;5060986;28;20390;-62
2023/10/02 10:46:57;;;;;;;21.77;15.00;;;;;;;;;;5073375;28;20445;-63
2023/10/02 10:49:27;;;;;;;22.70;14.60;;;;;;;;;;5067575;28;20048;-63
2023/10/02 10:51:52;;;;;;;21.95;15.02;;;;;;;;;;5057046;28;20122;-63
2023/10/02 10:54:30;;;;;;;21.25;15.63;;;;;;;;;;5051724;28;20712;-63
2023/10/02 10:57:18;;;;;;;24.20;15.73;;;;;;;;;;5075774;28;20035;-63
2023/10/02 10:59:45;;;;;;;21.75;15.57;;;;;;;;;;5060502;28;20032;-62
2023/10/02 11:02:12;;;;;;;22.67;15.43;;;;;;;;;;5061213;28;20032;-62
2023/10/02 11:04:45;;;;;;;21.73;15.30;;;;;;;;;;5061682;28;20040;-61
2023/10/02 11:07:19;;;;;;;22.20;15.68;;;;;;;;;;5073489;28;20070;-63
2023/10/02 11:10:15;;;;;;;23.92;15.68;;;;;;;;;;5059090;28;20020;-62
2023/10/02 11:12:54;;;;;;;23.20;16.33;;;;;;;;;;5067671;28;20749;-65
2023/10/02 11:15:44;;;;;;;25.05;16.50;;;;;;;;;;5062970;28;20016;-63
2023/10/02 11:18:20;;;;;;;23.42;16.88;;;;;;;;;;5065382;28;20565;-62
2023/10/02 11:20:49;;;;;;;24.83;16.98;;;;;;;;;;5050922;28;20020;-62
2023/10/02 11:23:22;;;;;;;26.70;17.20;;;;;;;;;;5055386;28;20040;-62
2023/10/02 11:25:53;;;;;;;24.42;16.17;;;;;;;;;;5052810;28;20027;-64
2023/10/02 11:28:30;;;;;;;27.70;17.20;;;;;;;;;;5068049;28;20027;-63
2023/10/02 11:31:29;;;;;;;24.05;17.05;;;;;;;;;;5080842;27;20855;-63
2023/10/02 11:33:58;;;;;;;23.77;15.68;;;;;;;;;;5056597;28;20028;-63
2023/10/02 11:36:24;;;;;;;26.20;16.10;;;;;;;;;;5068517;28;20016;-63
2023/10/02 11:38:52;;;;;;;24.77;15.90;;;;;;;;;;5047831;28;20820;-64
2023/10/02 11:41:17;;;;;;;22.60;16.00;;;;;;;;;;5065307;28;20032;-63
2023/10/02 11:43:43;;;;;;;23.27;16.27;;;;;;;;;;5065171;28;20050;-61
2023/10/02 11:46:08;;;;;;;23.03;16.20;;;;;;;;;;5050833;28;20533;-63
2023/10/02 11:48:33;;;;;;;24.27;16.10;;;;;;;;;;5053232;28;20381;-64
2023/10/02 11:50:58;;;;;;;25.03;16.77;;;;;;;;;;5053039;28;20063;-63
2023/10/02 11:53:24;;;;;;;23.90;16.63;;;;;;;;;;5051993;28;20054;-63
2023/10/02 11:55:50;;;;;;;28.47;17.67;;;;;;;;;;5074365;28;20028;-63
2023/10/02 11:58:15;;;;;;;22.63;16.33;;;;;;;;;;5056497;28;20112;-64
2023/10/02 12:00:41;;;;;;;22.33;16.63;;;;;;;;;;5083542;27;20173;-64
2023/10/02 12:03:06;;;;;;;22.30;16.52;;;;;;;;;;5072550;28;20107;-63
2023/10/02 12:05:36;;;;;;;21.87;17.17;;;;;;;;;;5069750;28;20498;-63
2023/10/02 12:08:02;;;;;;;23.90;16.35;;;;;;;;;;5063107;28;20044;-64
2023/10/02 12:10:30;;;;;;;26.30;17.20;;;;;;;;;;5063499;28;20118;-64
2023/10/02 12:12:55;;;;;;;22.20;16.17;;;;;;;;;;5059302;28;20024;-66
2023/10/02 12:15:21;;;;;;;30.50;17.50;;;;;;;;;;5070167;28;20672;-63
2023/10/02 12:17:47;;;;;;;34.05;17.10;;;;;;;;;;5063361;28;20083;-63
2023/10/02 12:20:16;;;;;;;26.92;16.55;;;;;;;;;;5069089;28;20118;-62
2023/10/02 12:22:44;;;;;;;22.67;16.08;;;;;;;;;;5054717;28;20103;-63
2023/10/02 12:25:09;;;;;;;22.58;16.85;;;;;;;;;;5068910;28;20028;-60
2023/10/02 12:27:35;;;;;;;21.05;14.90;;;;;;;;;;5053834;28;20131;-64
2023/10/02 12:30:00;;;;;;;20.25;15.55;;;;;;;;;;5055576;28;20035;-59
2023/10/02 12:32:27;;;;;;;20.63;15.50;;;;;;;;;;5058936;28;20036;-61
2023/10/02 12:34:52;;;;;;;24.75;16.60;;;;;;;;;;5042828;28;20999;-61
2023/10/02 12:37:18;;;;;;;21.13;15.27;;;;;;;;;;5060222;28;20042;-62
2023/10/02 12:39:44;;;;;;;22.08;16.20;;;;;;;;;;5058326;28;20282;-62
2023/10/02 12:42:09;;;;;;;20.63;15.27;;;;;;;;;;5060060;28;20118;-62
2023/10/02 12:44:40;;;;;;;22.27;16.63;;;;;;;;;;5074116;27;20802;-62
2023/10/02 12:47:06;;;;;;;23.33;16.35;;;;;;;;;;5060132;28;20250;-61
2023/10/02 12:49:31;;;;;;;21.70;17.38;;;;;;;;;;5051894;28;20073;-62
2023/10/02 12:51:57;;;;;;;23.60;16.40;;;;;;;;;;5076177;28;20714;-61
2023/10/02 12:54:23;;;;;;;24.17;16.42;;;;;;;;;;5062576;28;20031;-62
2023/10/02 12:56:50;;;;;;;21.67;15.38;;;;;;;;;;5076957;28;20028;-62
2023/10/02 12:59:16;;;;;;;19.50;15.43;;;;;;;;;;5080886;27;20115;-62
2023/10/02 13:01:44;;;;;;;26.30;16.67;;;;;;;;;;5057747;28;20040;-62
2023/10/02 13:04:12;;;;;;;22.45;16.35;;;;;;;;;;5078759;28;20086;-61
2023/10/02 13:06:38;;;;;;;25.52;16.95;;;;;;;;;;5063666;28;20019;-64
2023/10/02 13:09:21;;;;;;;21.23;16.13;;;;;;;;;;5078290;28;20024;-62
2023/10/02 13:11:47;;;;;;;20.90;15.63;;;;;;;;;;5075515;28;20028;-62
2023/10/02 13:14:18;;;;;;;22.20;16.73;;;;;;;;;;5051975;28;20489;-62
2023/10/02 13:16:45;;;;;;;20.17;15.48;;;;;;;;;;5077288;28;20023;-62
2023/10/02 13:19:11;;;;;;;20.48;15.73;;;;;;;;;;5063659;28;20080;-62
2023/10/02 13:21:38;;;;;;;21.25;15.52;;;;;;;;;;5061523;28;20067;-62
2023/10/02 13:24:07;;;;;;;19.60;15.55;;;;;;;;;;5060581;28;20028;-62
2023/10/02 13:26:33;;;;;;;21.50;16.88;;;;;;;;;;5077306;28;20031;-62
2023/10/02 13:28:59;;;;;;;20.63;16.63;;;;;;;;;;5061950;28;20024;-61
2023/10/02 13:31:24;;;;;;;22.35;16.27;;;;;;;;;;5062529;28;20024;-63
2023/10/02 13:33:53;;;;;;;21.38;16.90;;;;;;;;;;5079803;28;20039;-61
2023/10/02 13:36:21;;;;;;;20.15;15.93;;;;;;;;;;5080312;28;20020;-62
2023/10/02 13:38:49;;;;;;;18.55;16.35;;;;;;;;;;5076373;28;20015;-62
2023/10/02 13:41:17;;;;;;;21.55;16.20;;;;;;;;;;5082794;28;20023;-61
2023/10/02 13:43:43;;;;;;;18.38;15.60;;;;;;;;;;5081633;27;20027;-62
2023/10/02 13:46:11;;;;;;;20.42;16.30;;;;;;;;;;5081617;27;20038;-62
2023/10/02 13:48:46;;;;;;;19.45;16.25;;;;;;;;;;5062005;28;20060;-62
2023/10/02 13:51:13;;;;;;;21.80;16.38;;;;;;;;;;5048819;28;20027;-62
2023/10/02 13:53:40;;;;;;;21.85;16.02;;;;;;;;;;5061100;28;20026;-62
2023/10/02 13:56:16;;;;;;;18.33;15.93;;;;;;;;;;5077188;27;20964;-61
2023/10/02 13:58:44;;;;;;;19.38;15.43;;;;;;;;;;5044869;28;20418;-62
2023/10/02 14:01:10;;;;;;;23.80;16.58;;;;;;;;;;5044810;28;20517;-59
2023/10/02 14:03:36;;;;;;;20.23;15.60;;;;;;;;;;5060997;28;20407;-62
2023/10/02 14:06:08;;;;;;;25.58;16.40;;;;;;;;;;5056564;28;20585;-62
2023/10/02 14:08:36;;;;;;;18.92;14.65;;;;;;;;;;5049809;28;20037;-62
2023/10/02 14:11:02;;;;;;;18.98;16.25;;;;;;;;;;5074264;28;20020;-61
2023/10/02 14:13:29;;;;;;;22.08;16.85;;;;;;;;;;5068553;28;20026;-60
2023/10/02 14:15:55;;;;;;;21.55;16.55;;;;;;;;;;5069226;28;20024;-61
2023/10/02 14:18:23;;;;;;;22.15;16.58;;;;;;;;;;5059726;28;20392;-62
2023/10/02 14:21:02;;;;;;;17.48;15.50;;;;;;;;;;5049104;28;20037;-62
2023/10/02 14:23:31;;;;;;;20.92;16.35;;;;;;;;;;5049360;28;20883;-61
2023/10/02 14:25:56;;;;;;;17.77;15.43;;;;;;;;;;5075685;28;20027;-62
2023/10/02 14:28:23;;;;;;;20.52;15.93;;;;;;;;;;5064118;28;20023;-62
2023/10/02 14:30:49;;;;;;;20.48;15.52;;;;;;;;;;5071158;28;20028;-63
2023/10/02 14:33:17;;;;;;;18.83;15.70;;;;;;;;;;5077687;28;20527;-62
2023/10/02 14:35:47;;;;;;;19.77;15.45;;;;;;;;;;5074286;28;20958;-62
2023/10/02 14:38:12;;;;;;;;;;;;;;;;;;5057200;28;20024;-60
2023/10/02 14:40:38;;;;;;;17.02;14.45;;;;;;;;;;5060161;28;19945;-62
2023/10/02 14:43:03;;;;;;;17.90;15.50;;;;;;;;;;5055300;28;20020;-62
2023/10/02 14:45:29;;;;;;;18.30;15.32;;;;;;;;;;5068080;28;20638;-63
2023/10/02 14:47:56;;;;;;;18.45;15.15;;;;;;;;;;5065891;28;20091;-63
2023/10/02 14:50:23;;;;;;;18.90;15.15;;;;;;;;;;5059891;28;20066;-62
2023/10/02 14:52:55;;;;;;;18.45;14.85;;;;;;;;;;5074155;28;20047;-65
2023/10/02 14:55:22;;;;;;;17.73;14.52;;;;;;;;;;5054956;28;20022;-62
2023/10/02 14:57:47;;;;;;;19.27;14.32;;;;;;;;;;5072443;28;20020;-62
2023/10/02 15:00:14;;;;;;;19.92;15.10;;;;;;;;;;5071100;28;20020;-62
2023/10/02 15:02:42;;;;;;;20.05;14.90;;;;;;;;;;5053835;28;20028;-61
2023/10/02 15:05:07;;;;;;;18.55;14.63;;;;;;;;;;5069879;28;20955;-59
2023/10/02 15:07:37;;;;;;;22.70;15.32;;;;;;;;;;5052105;28;20101;-62
2023/10/02 15:10:05;;;;;;;18.63;13.88;;;;;;;;;;5054443;28;20027;-62
2023/10/02 15:12:30;;;;;;;16.63;14.00;;;;;;;;;;5077170;28;20516;-64
2023/10/02 15:14:57;;;;;;;19.60;14.53;;;;;;;;;;5067429;28;20577;-63
2023/10/02 15:17:25;;;;;;;18.13;14.68;;;;;;;;;;5072016;28;20269;-63